createdAt,value
2019-05-21T00:01:03.667Z,7.93
2019-05-21T00:04:09.318Z,10.13
2019-05-21T00:07:15.238Z,12.60
2019-05-21T00:10:21.093Z,12.33
2019-05-21T00:13:26.776Z,15.17
2019-05-21T00:16:32.501Z,18.57
2019-05-21T00:19:38.192Z,15.33
2019-05-21T00:22:43.917Z,17.40
2019-05-21T00:25:50.840Z,22.97
2019-05-21T00:29:31.849Z,18.73
2019-05-21T00:33:13.234Z,20.37
2019-05-21T00:36:57.907Z,21.70
2019-05-21T00:40:39.846Z,20.03
2019-05-21T00:43:51.414Z,22.00
2019-05-21T00:46:57.230Z,19.43
2019-05-21T00:50:02.930Z,19.03
2019-05-21T00:53:08.696Z,17.97
2019-05-21T00:56:14.379Z,14.57
2019-05-21T00:59:20.114Z,16.47
2019-05-21T01:02:25.828Z,13.93
2019-05-21T01:05:31.566Z,18.23
2019-05-21T01:08:37.283Z,15.73
2019-05-21T01:11:43.095Z,12.40
2019-05-21T01:14:48.762Z,12.93
2019-05-21T01:17:54.482Z,15.90
2019-05-21T01:21:00.151Z,13.57
2019-05-21T01:24:06.195Z,15.33
2019-05-21T01:27:11.868Z,15.80
2019-05-21T01:30:17.746Z,15.00
2019-05-21T01:33:23.462Z,14.17
2019-05-21T01:36:29.319Z,16.80
2019-05-21T01:39:35.042Z,19.77
2019-05-21T01:42:40.757Z,12.57
2019-05-21T01:45:47.423Z,14.90
2019-05-21T01:48:53.089Z,15.63
2019-05-21T01:51:58.796Z,16.40
2019-05-21T01:55:04.640Z,18.53
2019-05-21T01:58:10.398Z,15.73
2019-05-21T02:01:16.088Z,20.50
2019-05-21T02:04:21.826Z,15.30
2019-05-21T02:07:27.487Z,15.47
2019-05-21T02:10:34.294Z,15.50
2019-05-21T02:13:40.009Z,12.27
2019-05-21T02:16:45.707Z,12.93
2019-05-21T02:19:51.494Z,14.20
2019-05-21T02:22:57.624Z,12.77
2019-05-21T02:26:03.388Z,14.50
2019-05-21T02:29:09.071Z,14.50
2019-05-21T02:32:14.764Z,15.13
2019-05-21T02:35:20.447Z,16.80
2019-05-21T02:38:26.146Z,16.17
2019-05-21T02:41:32.009Z,10.70
2019-05-21T02:44:37.750Z,13.27
2019-05-21T02:47:43.431Z,16.30
2019-05-21T02:50:49.281Z,16.10
2019-05-21T02:53:54.946Z,13.00
2019-05-21T02:57:00.777Z,14.87
2019-05-21T03:00:08.893Z,12.93
2019-05-21T03:03:15.460Z,16.23
2019-05-21T03:06:21.140Z,12.73
2019-05-21T03:09:26.854Z,9.60
2019-05-21T03:12:32.641Z,9.37
2019-05-21T03:15:38.385Z,13.03
2019-05-21T03:18:44.302Z,7.83
2019-05-21T03:21:49.963Z,9.63
2019-05-21T03:24:55.673Z,9.27
2019-05-21T03:28:01.426Z,13.47
2019-05-21T03:31:07.294Z,10.73
2019-05-21T03:34:13.055Z,8.73
2019-05-21T03:37:18.844Z,11.50
2019-05-21T03:40:24.652Z,12.17
2019-05-21T03:43:30.386Z,12.40
2019-05-21T03:46:36.260Z,11.93
2019-05-21T03:49:42.987Z,9.47
2019-05-21T03:52:48.872Z,10.57
2019-05-21T03:55:54.762Z,9.60
2019-05-21T03:59:00.478Z,11.87
2019-05-21T04:02:07.139Z,9.17
2019-05-21T04:05:12.877Z,8.43
2019-05-21T04:08:18.503Z,9.53
2019-05-21T04:11:24.222Z,13.10
2019-05-21T04:14:33.954Z,10.47
2019-05-21T04:17:49.335Z,14.43
2019-05-21T04:20:55.020Z,12.93
2019-05-21T04:24:00.782Z,12.73
2019-05-21T04:27:06.652Z,14.63
2019-05-21T04:30:12.449Z,9.77
2019-05-21T04:33:18.118Z,12.43
2019-05-21T04:36:23.825Z,15.10
2019-05-21T04:39:29.606Z,7.47
2019-05-21T04:42:35.320Z,8.43
2019-05-21T04:45:41.069Z,4.40
2019-05-21T04:48:46.720Z,6.37
2019-05-21T04:51:52.395Z,6.20
2019-05-21T04:54:58.037Z,9.10
2019-05-21T04:58:03.767Z,9.00
2019-05-21T05:01:09.441Z,8.47
2019-05-21T05:04:20.977Z,9.80
2019-05-21T05:07:28.115Z,7.13
2019-05-21T05:10:29.943Z,8.17
2019-05-21T05:13:35.656Z,5.57
2019-05-21T05:16:41.314Z,8.23
2019-05-21T05:19:47.081Z,6.93
2019-05-21T05:22:52.752Z,7.83
2019-05-21T05:25:58.471Z,5.47
2019-05-21T05:29:04.256Z,6.83
2019-05-21T05:32:09.977Z,6.93
2019-05-21T05:35:15.936Z,15.00
2019-05-21T05:38:21.651Z,8.00
2019-05-21T05:41:37.865Z,8.80
2019-05-21T05:44:43.534Z,7.73
2019-05-21T05:47:52.108Z,9.60
2019-05-21T05:51:01.954Z,6.53
2019-05-21T05:54:07.945Z,5.70
2019-05-21T05:57:16.412Z,5.50
2019-05-21T06:00:22.641Z,7.50
2019-05-21T06:03:28.346Z,7.67
2019-05-21T06:06:34.129Z,11.23
2019-05-21T06:09:39.914Z,5.83
2019-05-21T06:12:50.172Z,7.33
2019-05-21T06:15:57.555Z,6.57
2019-05-21T06:19:03.342Z,6.03
2019-05-21T06:22:11.701Z,4.47
2019-05-21T06:25:22.932Z,9.67
2019-05-21T06:28:28.811Z,7.50
2019-05-21T06:31:35.504Z,7.27
2019-05-21T06:34:41.205Z,6.10
2019-05-21T06:37:46.870Z,5.73
2019-05-21T06:40:52.543Z,6.00
2019-05-21T06:43:58.345Z,8.33
2019-05-21T06:47:06.712Z,10.00
2019-05-21T06:50:12.550Z,7.00
2019-05-21T06:53:18.206Z,5.73
2019-05-21T06:56:26.578Z,5.37
2019-05-21T06:59:32.231Z,12.23
2019-05-21T07:02:37.970Z,8.20
2019-05-21T07:05:57.495Z,5.90
2019-05-21T07:08:51.139Z,8.07
2019-05-21T07:11:56.849Z,6.53
2019-05-21T07:15:02.603Z,6.07
2019-05-21T07:18:08.368Z,6.13
2019-05-21T07:21:14.263Z,6.43
2019-05-21T07:24:20.065Z,6.73
2019-05-21T07:27:25.801Z,5.60
2019-05-21T07:30:31.707Z,6.47
2019-05-21T07:33:37.590Z,5.13
2019-05-21T07:36:43.388Z,4.13
2019-05-21T07:39:52.836Z,7.73
2019-05-21T07:42:58.579Z,5.93
2019-05-21T07:46:04.278Z,9.57
2019-05-21T07:49:10.006Z,5.87
2019-05-21T07:52:15.681Z,8.60
2019-05-21T07:55:21.421Z,7.03
2019-05-21T07:58:33.194Z,8.00
2019-05-21T08:01:38.924Z,3.80
2019-05-21T08:04:44.605Z,6.47
2019-05-21T08:07:50.331Z,8.43
2019-05-21T08:10:56.059Z,8.67
2019-05-21T08:14:01.796Z,7.23
2019-05-21T08:17:07.729Z,6.97
2019-05-21T08:20:14.230Z,9.83
2019-05-21T08:23:19.974Z,5.30
2019-05-21T08:26:25.655Z,6.73
2019-05-21T08:29:31.668Z,5.97
2019-05-21T08:32:38.653Z,7.87
2019-05-21T08:35:45.533Z,6.73
2019-05-21T08:38:51.238Z,8.13
2019-05-21T08:41:56.976Z,8.57
2019-05-21T08:45:03.806Z,6.20
2019-05-21T08:48:09.892Z,8.70
2019-05-21T08:51:15.821Z,8.90
2019-05-21T08:54:40.348Z,6.93
2019-05-21T08:58:05.085Z,4.27
2019-05-21T09:00:53.621Z,6.30
2019-05-21T09:04:01.881Z,6.47
2019-05-21T09:07:07.647Z,7.60
2019-05-21T09:10:16.233Z,8.80
2019-05-21T09:13:22.002Z,6.47
2019-05-21T09:16:27.803Z,4.57
2019-05-21T09:19:36.379Z,4.17
2019-05-21T09:22:41.051Z,5.13
2019-05-21T09:25:49.579Z,3.73
2019-05-21T09:28:54.307Z,6.17
2019-05-21T09:31:59.960Z,6.50
2019-05-21T09:35:06.499Z,6.90
2019-05-21T09:38:12.256Z,6.60
2019-05-21T09:41:18.092Z,5.87
2019-05-21T09:44:23.981Z,5.73
2019-05-21T09:47:29.928Z,9.13
2019-05-21T09:50:35.685Z,3.90
2019-05-21T09:53:41.408Z,6.47
2019-05-21T09:56:47.180Z,5.07
2019-05-21T09:59:59.694Z,5.73
2019-05-21T10:03:07.944Z,2.60
2019-05-21T10:06:13.644Z,4.70
2019-05-21T10:09:20.425Z,6.83
2019-05-21T10:12:26.219Z,7.07
2019-05-21T10:15:33.171Z,6.00
2019-05-21T10:18:38.960Z,5.07
2019-05-21T10:21:44.733Z,5.20
2019-05-21T10:24:50.412Z,7.87
2019-05-21T10:27:56.070Z,5.77
2019-05-21T10:31:01.808Z,6.80
2019-05-21T10:34:07.519Z,5.40
2019-05-21T10:37:13.290Z,9.80
2019-05-21T10:40:19.351Z,5.20
2019-05-21T10:43:25.111Z,6.67
2019-05-21T10:46:31.183Z,4.87
2019-05-21T10:49:36.932Z,9.13
2019-05-21T10:52:42.646Z,6.33
2019-05-21T10:55:48.428Z,6.43
2019-05-21T10:58:54.204Z,4.13
2019-05-21T11:02:24.727Z,4.50
2019-05-21T11:05:34.449Z,5.37
2019-05-21T11:08:40.414Z,6.93
2019-05-21T11:11:48.618Z,6.57
2019-05-21T11:14:54.458Z,4.77
2019-05-21T11:18:10.342Z,7.23
2019-05-21T11:21:08.379Z,9.27
2019-05-21T11:24:15.085Z,2.83
2019-05-21T11:27:20.883Z,5.87
2019-05-21T11:30:26.641Z,4.60
2019-05-21T11:33:32.339Z,5.10
2019-05-21T11:36:38.145Z,4.90
2019-05-21T11:39:47.611Z,4.10
2019-05-21T11:42:53.505Z,5.67
2019-05-21T11:46:03.019Z,7.17
2019-05-21T11:49:12.444Z,7.93
2019-05-21T11:52:18.663Z,5.63
2019-05-21T11:55:24.469Z,7.90
2019-05-21T11:58:41.070Z,3.50
2019-05-21T12:01:46.946Z,4.93
2019-05-21T12:04:52.690Z,6.40
2019-05-21T12:07:58.506Z,8.43
2019-05-21T12:11:05.455Z,6.17
2019-05-21T12:14:11.112Z,6.87
2019-05-21T12:17:17.020Z,5.47
2019-05-21T12:20:36.153Z,7.40
2019-05-21T12:23:30.379Z,5.60
2019-05-21T12:26:37.262Z,5.73
2019-05-21T12:29:43.003Z,4.23
2019-05-21T12:32:48.661Z,6.90
2019-05-21T12:35:54.425Z,8.00
2019-05-21T12:39:13.669Z,4.83
2019-05-21T12:42:07.791Z,3.63
2019-05-21T12:45:13.885Z,4.10
2019-05-21T12:48:24.005Z,3.47
2019-05-21T12:51:29.876Z,3.37
2019-05-21T12:54:39.360Z,4.27
2019-05-21T12:57:45.031Z,3.80
2019-05-21T13:00:50.990Z,3.50
2019-05-21T13:03:56.695Z,2.90
2019-05-21T13:07:02.480Z,4.50
2019-05-21T13:10:09.257Z,4.10
2019-05-21T13:13:22.841Z,4.73
2019-05-21T13:16:28.517Z,7.20
2019-05-21T13:19:34.177Z,6.57
2019-05-21T13:22:39.914Z,5.87
2019-05-21T13:25:45.801Z,4.20
2019-05-21T13:28:51.549Z,3.90
2019-05-21T13:31:57.225Z,5.10
2019-05-21T13:35:03.413Z,4.13
2019-05-21T13:38:13.549Z,3.77
2019-05-21T13:41:17.967Z,3.17
2019-05-21T13:44:23.671Z,5.83
2019-05-21T13:47:29.445Z,4.03
2019-05-21T13:50:35.105Z,3.20
2019-05-21T13:53:40.774Z,3.50
2019-05-21T13:56:46.435Z,4.37
2019-05-21T13:59:52.155Z,4.90
2019-05-21T14:02:57.876Z,4.97
2019-05-21T14:06:03.698Z,4.47
2019-05-21T14:09:10.087Z,4.90
2019-05-21T14:12:16.489Z,5.17
2019-05-21T14:15:22.419Z,4.67
2019-05-21T14:18:28.076Z,6.97
2019-05-21T14:21:34.180Z,3.37
2019-05-21T14:24:39.859Z,6.73
2019-05-21T14:27:45.969Z,5.40
2019-05-21T14:30:51.588Z,3.87
2019-05-21T14:33:57.393Z,5.53
2019-05-21T14:37:04.492Z,5.03
2019-05-21T14:40:12.126Z,4.67
2019-05-21T14:43:18.229Z,3.37
2019-05-21T14:46:24.060Z,4.47
2019-05-21T14:49:29.896Z,6.87
2019-05-21T14:52:35.578Z,4.63
2019-05-21T14:55:41.450Z,5.60
2019-05-21T14:58:47.130Z,6.20
2019-05-21T15:01:58.195Z,4.53
2019-05-21T15:05:04.955Z,4.43
2019-05-21T15:08:10.749Z,4.00
2019-05-21T15:11:16.641Z,2.83
2019-05-21T15:14:22.504Z,2.30
2019-05-21T15:17:28.237Z,5.27
2019-05-21T15:20:48.275Z,4.57
2019-05-21T15:23:53.973Z,4.97
2019-05-21T15:26:59.722Z,4.10
2019-05-21T15:30:05.930Z,7.07
2019-05-21T15:33:11.744Z,3.93
2019-05-21T15:36:17.447Z,5.47
2019-05-21T15:39:23.115Z,4.47
2019-05-21T15:42:28.998Z,5.10
2019-05-21T15:45:34.933Z,4.80
2019-05-21T15:48:40.664Z,3.07
2019-05-21T15:51:46.489Z,4.17
2019-05-21T15:54:52.206Z,4.27
2019-05-21T15:57:57.929Z,2.83
2019-05-21T16:01:04.831Z,3.03
2019-05-21T16:04:10.496Z,2.03
2019-05-21T16:07:16.267Z,7.27
2019-05-21T16:10:22.070Z,3.47
2019-05-21T16:13:27.851Z,4.33
2019-05-21T16:16:33.535Z,2.67
2019-05-21T16:19:39.374Z,2.67
2019-05-21T16:22:45.063Z,2.97
2019-05-21T16:25:50.835Z,4.07
2019-05-21T16:28:56.569Z,4.90
2019-05-21T16:32:02.389Z,2.27
2019-05-21T16:35:11.643Z,5.33
2019-05-21T16:38:17.486Z,4.90
2019-05-21T16:41:24.782Z,4.80
2019-05-21T16:44:30.809Z,5.63
2019-05-21T16:47:45.920Z,3.43
2019-05-21T16:50:44.195Z,4.90
2019-05-21T16:53:49.951Z,4.03
2019-05-21T16:56:57.842Z,4.03
2019-05-21T17:00:03.310Z,5.07
2019-05-21T17:03:10.238Z,4.67
2019-05-21T17:06:15.967Z,3.20
2019-05-21T17:09:21.656Z,3.23
2019-05-21T17:12:27.420Z,3.37
2019-05-21T17:15:33.368Z,3.63
2019-05-21T17:18:39.051Z,4.73
2019-05-21T17:21:45.294Z,4.77
2019-05-21T17:24:52.066Z,4.97
2019-05-21T17:27:57.753Z,5.93
2019-05-21T17:31:03.540Z,5.83
2019-05-21T17:34:10.357Z,4.10
2019-05-21T17:37:16.429Z,7.00
2019-05-21T17:40:22.221Z,6.40
2019-05-21T17:43:28.082Z,7.77
2019-05-21T17:46:36.833Z,10.10
2019-05-21T17:49:43.902Z,5.80
2019-05-21T17:52:49.788Z,4.37
2019-05-21T17:55:59.108Z,4.00
2019-05-21T17:59:04.892Z,4.77
2019-05-21T18:02:13.814Z,6.07
2019-05-21T18:05:20.953Z,4.07
2019-05-21T18:08:26.731Z,4.47
2019-05-21T18:11:33.738Z,3.43
2019-05-21T18:14:39.679Z,3.63
2019-05-21T18:17:46.130Z,4.93
2019-05-21T18:20:54.788Z,7.70
2019-05-21T18:24:00.678Z,6.67
2019-05-21T18:27:06.537Z,8.33
2019-05-21T18:30:12.996Z,8.53
2019-05-21T18:33:18.880Z,5.53
2019-05-21T18:36:24.921Z,6.77
2019-05-21T18:39:33.790Z,3.57
2019-05-21T18:42:39.288Z,4.17
2019-05-21T18:45:45.026Z,4.47
2019-05-21T18:48:52.251Z,2.13
2019-05-21T18:51:57.997Z,2.63
2019-05-21T18:55:03.751Z,3.40
2019-05-21T18:58:11.084Z,5.30
2019-05-21T19:01:17.235Z,3.47
2019-05-21T19:04:22.991Z,6.90
2019-05-21T19:07:28.735Z,4.77
2019-05-21T19:10:35.711Z,3.43
2019-05-21T19:13:41.753Z,4.10
2019-05-21T19:16:47.515Z,3.20
2019-05-21T19:19:53.459Z,2.93
2019-05-21T19:23:17.953Z,3.33
2019-05-21T19:26:36.821Z,4.70
2019-05-21T19:29:45.243Z,3.47
2019-05-21T19:33:31.730Z,2.33
2019-05-21T19:36:56.006Z,4.63
2019-05-21T19:44:38.465Z,2.43
2019-05-21T19:55:58.665Z,2.13
2019-05-21T19:59:43.542Z,4.80
2019-05-21T20:11:48.542Z,1.37
2019-05-21T20:15:23.277Z,2.77
2019-05-21T20:20:25.107Z,1.23
2019-05-21T20:27:57.422Z,2.27
2019-05-21T20:31:17.278Z,2.07
2019-05-21T20:35:21.808Z,3.53
2019-05-21T20:46:41.391Z,1.60
2019-05-21T20:50:06.171Z,3.27
2019-05-21T20:53:11.919Z,3.17
2019-05-21T20:56:27.320Z,3.60
2019-05-21T20:59:33.343Z,1.50
2019-05-21T21:02:44.036Z,2.53
2019-05-21T21:05:50.043Z,2.50
2019-05-21T21:08:57.571Z,4.43
2019-05-21T21:12:06.345Z,4.00
2019-05-21T21:15:13.037Z,4.60
2019-05-21T21:18:19.795Z,5.60
2019-05-21T21:21:26.764Z,5.60
2019-05-21T21:24:33.319Z,6.50
2019-05-21T21:27:39.226Z,4.90
2019-05-21T21:30:45.434Z,3.33
2019-05-21T21:33:51.336Z,5.03
2019-05-21T21:37:02.588Z,3.77
2019-05-21T21:40:11.925Z,3.17
2019-05-21T21:43:19.113Z,2.73
2019-05-21T21:46:24.854Z,3.70
2019-05-21T21:49:31.579Z,6.40
2019-05-21T21:52:40.690Z,5.43
2019-05-21T21:55:46.582Z,3.57
2019-05-21T21:58:52.367Z,2.70
2019-05-21T22:02:03.794Z,3.37
2019-05-21T22:05:10.910Z,4.97
2019-05-21T22:08:17.199Z,4.63
2019-05-21T22:11:23.914Z,4.07
2019-05-21T22:14:30.312Z,3.70
2019-05-21T22:17:36.397Z,3.53
2019-05-21T22:20:42.426Z,4.43
2019-05-21T22:23:50.868Z,4.93
2019-05-21T22:26:56.996Z,5.00
2019-05-21T22:30:03.198Z,3.73
2019-05-21T22:33:12.361Z,4.23
2019-05-21T22:36:18.598Z,7.27
2019-05-21T22:39:26.598Z,2.97
2019-05-21T22:42:33.017Z,5.33
2019-05-21T22:45:38.771Z,4.50
2019-05-21T22:48:45.271Z,3.93
2019-05-21T22:51:51.363Z,5.20
2019-05-21T22:54:57.033Z,3.97
2019-05-21T22:58:02.725Z,4.87
2019-05-21T23:01:12.105Z,4.27
2019-05-21T23:04:18.611Z,6.07
2019-05-21T23:07:29.121Z,4.60
2019-05-21T23:10:34.874Z,6.67
2019-05-21T23:13:40.721Z,5.63
2019-05-21T23:16:49.685Z,5.30
2019-05-21T23:20:07.459Z,4.63
2019-05-21T23:23:15.550Z,7.20
2019-05-21T23:26:21.748Z,7.07
2019-05-21T23:29:30.988Z,4.67
2019-05-21T23:32:37.813Z,5.37
2019-05-21T23:35:43.933Z,5.80
2019-05-21T23:38:52.223Z,8.33
2019-05-21T23:41:58.011Z,5.00
2019-05-21T23:45:05.431Z,3.73
2019-05-21T23:48:12.610Z,3.07
2019-05-21T23:51:18.344Z,6.27
2019-05-21T23:54:24.266Z,7.63
2019-05-21T23:57:30.815Z,7.40
